createdAt,value
2023-03-03T00:00:41.480Z,53.33
2023-03-03T00:01:42.536Z,53.82
2023-03-03T00:02:41.593Z,50.92
2023-03-03T00:03:41.527Z,55.11
2023-03-03T00:04:41.514Z,60.10
2023-03-03T00:05:41.440Z,57.69
2023-03-03T00:06:41.422Z,55.75
2023-03-03T00:07:41.460Z,52.05
2023-03-03T00:08:41.458Z,54.14
2023-03-03T00:09:42.238Z,50.76
2023-03-03T00:10:41.462Z,50.27
2023-03-03T00:11:41.396Z,51.40
2023-03-03T00:12:41.386Z,48.02
2023-03-03T00:13:41.371Z,48.02
2023-03-03T00:14:41.366Z,48.82
2023-03-03T00:15:41.423Z,52.21
2023-03-03T00:16:41.354Z,46.57
2023-03-03T00:17:41.374Z,54.30
2023-03-03T00:18:41.314Z,53.50
2023-03-03T00:19:41.342Z,53.66
2023-03-03T00:20:41.308Z,52.21
2023-03-03T00:21:41.353Z,50.76
2023-03-03T00:22:41.242Z,49.47
2023-03-03T00:23:41.241Z,52.53
2023-03-03T00:24:41.229Z,47.05
2023-03-03T00:25:41.251Z,48.50
2023-03-03T00:26:41.222Z,52.53
2023-03-03T00:27:41.197Z,46.41
2023-03-03T00:28:41.228Z,48.82
2023-03-03T00:29:41.233Z,53.01
2023-03-03T00:30:41.182Z,55.11
2023-03-03T00:31:41.191Z,49.79
2023-03-03T00:32:41.169Z,49.47
2023-03-03T00:33:41.152Z,55.75
2023-03-03T00:34:41.681Z,47.05
2023-03-03T00:35:41.178Z,51.24
2023-03-03T00:36:41.240Z,56.40
2023-03-03T00:37:41.064Z,46.08
2023-03-03T00:38:41.210Z,52.53
2023-03-03T00:39:41.612Z,48.50
2023-03-03T00:40:41.107Z,49.31
2023-03-03T00:41:41.292Z,47.70
2023-03-03T00:42:41.016Z,48.02
2023-03-03T00:43:41.070Z,49.79
2023-03-03T00:44:41.103Z,52.53
2023-03-03T00:45:41.701Z,46.89
2023-03-03T00:46:41.029Z,44.79
2023-03-03T00:47:40.997Z,47.70
2023-03-03T00:48:41.020Z,47.05
2023-03-03T00:49:40.973Z,46.08
2023-03-03T00:50:40.990Z,46.57
2023-03-03T00:51:40.938Z,46.08
2023-03-03T00:52:40.915Z,52.21
2023-03-03T00:53:40.937Z,51.40
2023-03-03T00:54:40.959Z,53.98
2023-03-03T00:55:40.938Z,50.60
2023-03-03T00:56:40.966Z,46.89
2023-03-03T00:57:40.914Z,50.60
2023-03-03T00:58:40.833Z,46.25
2023-03-03T00:59:41.017Z,46.41
2023-03-03T01:00:40.928Z,48.50
2023-03-03T01:01:40.904Z,44.79
2023-03-03T01:02:40.891Z,52.53
2023-03-03T01:03:40.826Z,50.43
2023-03-03T01:04:40.839Z,50.27
2023-03-03T01:05:40.824Z,48.50
2023-03-03T01:06:40.803Z,50.27
2023-03-03T01:07:40.767Z,48.02
2023-03-03T01:08:40.800Z,53.66
2023-03-03T01:09:40.716Z,50.92
2023-03-03T01:10:40.741Z,45.28
2023-03-03T01:11:40.760Z,45.76
2023-03-03T01:12:40.742Z,45.12
2023-03-03T01:13:40.722Z,46.41
2023-03-03T01:14:40.702Z,51.72
2023-03-03T01:15:40.710Z,47.53
2023-03-03T01:16:41.601Z,51.56
2023-03-03T01:17:40.704Z,46.08
2023-03-03T01:18:40.658Z,46.08
2023-03-03T01:19:40.638Z,44.47
2023-03-03T01:20:40.633Z,56.24
2023-03-03T01:21:40.617Z,53.17
2023-03-03T01:22:40.666Z,46.73
2023-03-03T01:23:40.587Z,45.44
2023-03-03T01:24:40.590Z,44.31
2023-03-03T01:25:40.594Z,49.47
2023-03-03T01:26:40.576Z,45.44
2023-03-03T01:27:40.550Z,47.70
2023-03-03T01:28:40.620Z,44.63
2023-03-03T01:29:40.519Z,47.21
2023-03-03T01:30:40.520Z,55.11
2023-03-03T01:31:40.599Z,49.47
2023-03-03T01:32:40.507Z,44.15
2023-03-03T01:33:40.476Z,44.15
2023-03-03T01:34:40.501Z,50.76
2023-03-03T01:35:40.517Z,43.18
2023-03-03T01:36:40.420Z,43.02
2023-03-03T01:37:40.442Z,43.99
2023-03-03T01:38:40.403Z,50.76
2023-03-03T01:39:40.411Z,47.86
2023-03-03T01:40:40.440Z,51.56
2023-03-03T01:41:40.438Z,49.31
2023-03-03T01:42:40.415Z,46.57
2023-03-03T01:43:40.403Z,43.83
2023-03-03T01:44:40.380Z,43.67
2023-03-03T01:45:40.426Z,50.92
2023-03-03T01:46:40.598Z,44.15
2023-03-03T01:47:40.359Z,43.83
2023-03-03T01:48:40.339Z,42.54
2023-03-03T01:49:40.302Z,48.34
2023-03-03T01:50:40.314Z,56.72
2023-03-03T01:51:40.323Z,46.57
2023-03-03T01:52:40.279Z,46.57
2023-03-03T01:53:40.277Z,46.25
2023-03-03T01:54:40.320Z,53.17
2023-03-03T01:55:40.243Z,50.76
2023-03-03T01:56:40.272Z,45.44
2023-03-03T01:57:40.227Z,45.44
2023-03-03T01:58:40.245Z,49.47
2023-03-03T01:59:40.207Z,45.92
2023-03-03T02:00:40.262Z,47.53
2023-03-03T02:01:40.292Z,45.12
2023-03-03T02:02:40.209Z,50.60
2023-03-03T02:03:40.219Z,44.15
2023-03-03T02:04:40.126Z,44.15
2023-03-03T02:05:40.191Z,45.28
2023-03-03T02:06:40.136Z,49.95
2023-03-03T02:07:40.197Z,47.37
2023-03-03T02:08:40.217Z,52.37
2023-03-03T02:09:40.113Z,47.53
2023-03-03T02:10:40.130Z,43.51
2023-03-03T02:11:40.032Z,42.06
2023-03-03T02:12:40.077Z,41.89
2023-03-03T02:13:40.100Z,43.99
2023-03-03T02:14:40.071Z,44.63
2023-03-03T02:15:40.047Z,44.63
2023-03-03T02:16:40.039Z,46.57
2023-03-03T02:17:40.087Z,46.73
2023-03-03T02:18:40.023Z,49.79
2023-03-03T02:19:39.990Z,48.50
2023-03-03T02:20:40.006Z,52.05
2023-03-03T02:21:40.002Z,59.78
2023-03-03T02:22:39.922Z,56.72
2023-03-03T02:23:40.018Z,56.07
2023-03-03T02:24:39.931Z,45.76
2023-03-03T02:25:39.957Z,47.37
2023-03-03T02:26:39.982Z,45.12
2023-03-03T02:27:39.903Z,44.47
2023-03-03T02:28:39.954Z,46.73
2023-03-03T02:29:39.971Z,55.43
2023-03-03T02:30:39.962Z,50.43
2023-03-03T02:31:39.980Z,44.79
2023-03-03T02:32:40.002Z,43.02
2023-03-03T02:33:39.898Z,43.67
2023-03-03T02:34:39.843Z,43.18
2023-03-03T02:35:40.501Z,42.38
2023-03-03T02:36:39.816Z,47.86
2023-03-03T02:37:39.874Z,44.31
2023-03-03T02:38:39.846Z,51.24
2023-03-03T02:39:39.830Z,51.56
2023-03-03T02:40:39.722Z,55.91
2023-03-03T02:41:39.763Z,50.76
2023-03-03T02:42:39.765Z,49.31
2023-03-03T02:43:39.811Z,54.46
2023-03-03T02:44:39.749Z,53.50
2023-03-03T02:45:39.748Z,54.30
2023-03-03T02:46:39.745Z,55.11
2023-03-03T02:47:39.702Z,55.59
2023-03-03T02:48:39.723Z,46.73
2023-03-03T02:49:39.700Z,58.81
2023-03-03T02:50:39.667Z,54.79
2023-03-03T02:51:39.650Z,46.89
2023-03-03T02:52:39.707Z,44.63
2023-03-03T02:53:39.651Z,48.34
2023-03-03T02:54:39.663Z,46.57
2023-03-03T02:55:39.610Z,45.28
2023-03-03T02:56:39.588Z,46.57
2023-03-03T02:57:39.598Z,45.44
2023-03-03T02:58:39.646Z,44.63
2023-03-03T02:59:39.589Z,45.60
2023-03-03T03:00:39.587Z,47.21
2023-03-03T03:01:39.530Z,56.24
2023-03-03T03:02:39.538Z,52.85
2023-03-03T03:03:39.547Z,59.78
2023-03-03T03:04:39.530Z,53.01
2023-03-03T03:05:39.524Z,49.95
2023-03-03T03:06:39.486Z,47.70
2023-03-03T03:07:39.472Z,47.21
2023-03-03T03:08:39.492Z,55.11
2023-03-03T03:09:39.457Z,46.73
2023-03-03T03:10:39.493Z,48.18
2023-03-03T03:11:39.421Z,56.24
2023-03-03T03:12:39.411Z,49.31
2023-03-03T03:13:39.397Z,56.24
2023-03-03T03:14:39.425Z,51.40
2023-03-03T03:15:39.368Z,48.50
2023-03-03T03:16:39.452Z,53.66
2023-03-03T03:17:39.373Z,49.47
2023-03-03T03:18:39.330Z,54.62
2023-03-03T03:19:39.570Z,46.73
2023-03-03T03:20:39.305Z,45.12
2023-03-03T03:21:39.351Z,45.44
2023-03-03T03:22:39.304Z,50.27
2023-03-03T03:23:39.290Z,47.70
2023-03-03T03:24:39.438Z,45.76
2023-03-03T03:25:39.286Z,46.25
2023-03-03T03:26:39.256Z,46.89
2023-03-03T03:27:39.320Z,46.08
2023-03-03T03:28:39.302Z,45.12
2023-03-03T03:29:39.242Z,43.67
2023-03-03T03:30:39.386Z,60.91
2023-03-03T03:31:39.218Z,60.75
2023-03-03T03:32:39.282Z,49.63
2023-03-03T03:33:39.223Z,57.20
2023-03-03T03:34:39.180Z,51.88
2023-03-03T03:35:39.172Z,55.75
2023-03-03T03:36:39.193Z,52.37
2023-03-03T03:37:39.242Z,53.17
2023-03-03T03:38:39.130Z,51.40
2023-03-03T03:39:39.109Z,50.92
2023-03-03T03:40:39.173Z,49.31
2023-03-03T03:41:39.069Z,51.24
2023-03-03T03:42:39.079Z,50.11
2023-03-03T03:43:39.125Z,51.08
2023-03-03T03:44:39.057Z,53.01
2023-03-03T03:45:39.084Z,51.72
2023-03-03T03:46:39.041Z,49.47
2023-03-03T03:47:39.072Z,59.30
2023-03-03T03:48:39.024Z,52.05
2023-03-03T03:49:38.998Z,60.26
2023-03-03T03:50:39.580Z,60.42
2023-03-03T03:51:38.980Z,49.63
2023-03-03T03:52:38.997Z,58.33
2023-03-03T03:53:39.031Z,60.91
2023-03-03T03:54:38.962Z,47.21
2023-03-03T03:55:38.988Z,56.72
2023-03-03T03:56:38.944Z,48.66
2023-03-03T03:57:38.917Z,53.33
2023-03-03T03:58:38.932Z,55.27
2023-03-03T03:59:38.981Z,58.97
2023-03-03T04:00:38.905Z,52.85
2023-03-03T04:01:38.956Z,58.65
2023-03-03T04:02:38.999Z,57.36
2023-03-03T04:03:38.886Z,58.65
2023-03-03T04:04:38.903Z,55.11
2023-03-03T04:05:38.907Z,58.97
2023-03-03T04:06:38.883Z,55.11
2023-03-03T04:07:38.830Z,57.52
2023-03-03T04:08:38.816Z,60.75
2023-03-03T04:09:38.790Z,54.62
2023-03-03T04:10:38.801Z,59.14
2023-03-03T04:11:38.749Z,54.30
2023-03-03T04:12:38.784Z,61.39
2023-03-03T04:13:38.803Z,55.43
2023-03-03T04:14:38.752Z,61.39
2023-03-03T04:15:38.820Z,59.30
2023-03-03T04:16:39.549Z,52.69
2023-03-03T04:17:38.722Z,62.52
2023-03-03T04:18:38.659Z,62.84
2023-03-03T04:19:38.687Z,60.42
2023-03-03T04:20:38.770Z,57.69
2023-03-03T04:21:38.651Z,65.10
2023-03-03T04:22:38.670Z,59.46
2023-03-03T04:23:38.659Z,58.97
2023-03-03T04:24:38.651Z,63.16
2023-03-03T04:25:38.627Z,64.45
2023-03-03T04:26:38.757Z,62.68
2023-03-03T04:27:38.600Z,60.26
2023-03-03T04:28:38.597Z,56.88
2023-03-03T04:29:38.618Z,61.07
2023-03-03T04:30:38.585Z,61.07
2023-03-03T04:31:38.596Z,65.10
2023-03-03T04:32:38.579Z,61.39
2023-03-03T04:33:38.527Z,65.58
2023-03-03T04:34:38.554Z,66.71
2023-03-03T04:35:38.548Z,63.49
2023-03-03T04:36:38.523Z,63.65
2023-03-03T04:37:38.500Z,63.33
2023-03-03T04:38:38.502Z,61.39
2023-03-03T04:39:38.533Z,65.74
2023-03-03T04:40:39.834Z,61.55
2023-03-03T04:41:38.507Z,66.06
2023-03-03T04:42:38.438Z,63.81
2023-03-03T04:43:38.413Z,68.80
2023-03-03T04:44:38.545Z,66.87
2023-03-03T04:45:38.418Z,69.29
2023-03-03T04:46:38.510Z,64.13
2023-03-03T04:47:38.438Z,65.26
2023-03-03T04:48:38.379Z,66.87
2023-03-03T04:49:38.432Z,68.00
2023-03-03T04:50:39.082Z,57.20
2023-03-03T04:51:38.334Z,67.35
2023-03-03T04:52:38.318Z,66.06
2023-03-03T04:53:38.286Z,65.58
2023-03-03T04:54:38.338Z,65.58
2023-03-03T04:55:38.309Z,65.74
2023-03-03T04:56:38.618Z,68.00
2023-03-03T04:57:38.249Z,56.40
2023-03-03T04:58:38.254Z,61.71
2023-03-03T04:59:38.252Z,61.87
2023-03-03T05:00:38.200Z,67.35
2023-03-03T05:01:38.981Z,65.90
2023-03-03T05:02:38.223Z,63.33
2023-03-03T05:03:38.180Z,65.26
2023-03-03T05:04:38.287Z,67.35
2023-03-03T05:05:38.158Z,68.64
2023-03-03T05:06:38.156Z,65.10
2023-03-03T05:07:38.165Z,62.20
2023-03-03T05:08:38.592Z,64.61
2023-03-03T05:09:38.152Z,68.32
2023-03-03T05:10:38.104Z,64.61
2023-03-03T05:11:38.087Z,65.74
2023-03-03T05:12:38.086Z,64.61
2023-03-03T05:13:38.097Z,67.35
2023-03-03T05:14:38.068Z,69.77
2023-03-03T05:15:38.132Z,71.38
2023-03-03T05:16:38.068Z,65.42
2023-03-03T05:17:38.058Z,66.06
2023-03-03T05:18:38.016Z,68.48
2023-03-03T05:19:37.996Z,67.84
2023-03-03T05:20:37.973Z,70.58
2023-03-03T05:21:38.082Z,59.62
2023-03-03T05:22:37.975Z,68.00
2023-03-03T05:23:37.956Z,67.84
2023-03-03T05:24:37.964Z,66.55
2023-03-03T05:25:37.989Z,64.78
2023-03-03T05:26:37.946Z,67.35
2023-03-03T05:27:38.925Z,68.48
2023-03-03T05:28:37.901Z,71.87
2023-03-03T05:29:37.934Z,64.94
2023-03-03T05:30:37.892Z,66.55
2023-03-03T05:31:37.908Z,67.68
2023-03-03T05:32:37.883Z,68.96
2023-03-03T05:33:37.914Z,69.45
2023-03-03T05:34:37.818Z,66.87
2023-03-03T05:35:37.908Z,70.90
2023-03-03T05:36:37.831Z,69.13
2023-03-03T05:37:37.851Z,71.87
2023-03-03T05:38:37.832Z,72.03
2023-03-03T05:39:37.770Z,69.13
2023-03-03T05:40:37.788Z,72.03
2023-03-03T05:41:37.756Z,70.42
2023-03-03T05:42:37.806Z,66.39
2023-03-03T05:43:37.777Z,69.29
2023-03-03T05:44:37.711Z,73.15
2023-03-03T05:45:37.720Z,69.61
2023-03-03T05:46:37.743Z,69.61
2023-03-03T05:47:37.719Z,73.15
2023-03-03T05:48:37.781Z,68.00
2023-03-03T05:49:37.677Z,70.58
2023-03-03T05:50:37.647Z,71.54
2023-03-03T05:51:37.636Z,69.61
2023-03-03T05:52:37.619Z,67.03
2023-03-03T05:53:38.660Z,67.68
2023-03-03T05:54:37.650Z,71.22
2023-03-03T05:55:37.622Z,70.74
2023-03-03T05:56:37.606Z,69.13
2023-03-03T05:57:37.618Z,69.13
2023-03-03T05:58:37.605Z,68.96
2023-03-03T05:59:37.616Z,67.51
2023-03-03T06:00:37.528Z,66.06
2023-03-03T06:01:37.560Z,69.13
2023-03-03T06:02:37.575Z,66.39
2023-03-03T06:03:37.543Z,68.48
2023-03-03T06:04:37.557Z,67.68
2023-03-03T06:05:37.499Z,70.58
2023-03-03T06:06:37.499Z,67.51
2023-03-03T06:07:38.468Z,68.00
2023-03-03T06:08:37.454Z,69.45
2023-03-03T06:09:37.499Z,69.13
2023-03-03T06:10:37.703Z,58.65
2023-03-03T06:11:37.507Z,67.51
2023-03-03T06:12:37.473Z,69.29
2023-03-03T06:13:37.377Z,71.06
2023-03-03T06:14:37.417Z,70.74
2023-03-03T06:15:37.521Z,69.93
2023-03-03T06:16:37.378Z,71.22
2023-03-03T06:17:37.447Z,71.38
2023-03-03T06:18:37.361Z,68.96
2023-03-03T06:19:37.361Z,70.25
2023-03-03T06:20:37.325Z,73.15
2023-03-03T06:21:37.399Z,72.51
2023-03-03T06:22:37.319Z,70.09
2023-03-03T06:23:37.329Z,68.00
2023-03-03T06:24:37.310Z,72.03
2023-03-03T06:25:37.310Z,71.54
2023-03-03T06:26:37.278Z,68.64
2023-03-03T06:27:37.354Z,71.22
2023-03-03T06:28:37.566Z,65.58
2023-03-03T06:29:37.263Z,69.93
2023-03-03T06:30:37.244Z,68.48
2023-03-03T06:31:37.324Z,68.80
2023-03-03T06:32:37.303Z,70.42
2023-03-03T06:33:37.235Z,65.58
2023-03-03T06:34:37.983Z,73.32
2023-03-03T06:35:37.266Z,71.06
2023-03-03T06:36:37.185Z,72.51
2023-03-03T06:37:37.168Z,71.70
2023-03-03T06:38:37.132Z,67.68
2023-03-03T06:39:37.122Z,68.16
2023-03-03T06:40:37.144Z,70.42
2023-03-03T06:41:37.125Z,72.67
2023-03-03T06:42:37.104Z,67.68
2023-03-03T06:43:37.091Z,68.64
2023-03-03T06:44:37.088Z,70.74
2023-03-03T06:45:37.110Z,71.70
2023-03-03T06:46:37.048Z,69.13
2023-03-03T06:47:37.052Z,70.25
2023-03-03T06:48:37.013Z,70.58
2023-03-03T06:49:37.030Z,68.96
2023-03-03T06:50:37.008Z,67.84
2023-03-03T06:51:37.003Z,71.06
2023-03-03T06:52:37.043Z,69.93
2023-03-03T06:53:37.980Z,68.00
2023-03-03T06:54:36.990Z,65.42
2023-03-03T06:55:36.971Z,70.25
2023-03-03T06:56:37.004Z,69.61
2023-03-03T06:57:36.927Z,69.61
2023-03-03T06:58:36.903Z,68.32
2023-03-03T06:59:36.897Z,66.06
2023-03-03T07:00:36.927Z,68.80
2023-03-03T07:01:36.872Z,64.61
2023-03-03T07:02:36.897Z,68.80
2023-03-03T07:03:36.879Z,67.35
2023-03-03T07:04:36.861Z,67.03
2023-03-03T07:05:36.916Z,64.45
2023-03-03T07:06:36.830Z,63.16
2023-03-03T07:07:36.799Z,63.97
2023-03-03T07:08:36.809Z,69.45
2023-03-03T07:09:36.813Z,63.00
2023-03-03T07:10:36.758Z,71.70
2023-03-03T07:11:36.778Z,65.26
2023-03-03T07:12:36.771Z,66.39
2023-03-03T07:13:36.775Z,69.61
2023-03-03T07:14:36.763Z,71.87
2023-03-03T07:15:36.754Z,69.93
2023-03-03T07:16:36.781Z,70.09
2023-03-03T07:17:36.698Z,70.42
2023-03-03T07:18:36.709Z,72.03
2023-03-03T07:19:36.705Z,69.29
2023-03-03T07:20:36.665Z,67.84
2023-03-03T07:21:36.793Z,62.36
2023-03-03T07:22:36.665Z,69.13
2023-03-03T07:23:36.686Z,66.55
2023-03-03T07:24:36.681Z,68.96
2023-03-03T07:25:36.631Z,66.23
2023-03-03T07:26:36.668Z,70.90
2023-03-03T07:27:36.633Z,65.58
2023-03-03T07:28:36.601Z,68.80
2023-03-03T07:29:36.601Z,65.26
2023-03-03T07:30:36.625Z,68.80
2023-03-03T07:31:36.552Z,68.96
2023-03-03T07:32:36.542Z,70.09
2023-03-03T07:33:36.549Z,72.51
2023-03-03T07:34:36.631Z,73.15
2023-03-03T07:35:36.536Z,68.80
2023-03-03T07:36:36.500Z,68.96
2023-03-03T07:37:36.501Z,71.22
2023-03-03T07:38:36.487Z,70.58
2023-03-03T07:39:39.041Z,69.61
2023-03-03T07:40:36.492Z,64.94
2023-03-03T07:41:37.454Z,68.96
2023-03-03T07:42:36.456Z,57.69
2023-03-03T07:43:37.428Z,68.16
2023-03-03T07:44:36.446Z,64.13
2023-03-03T07:45:36.451Z,68.16
2023-03-03T07:46:36.433Z,70.25
2023-03-03T07:47:36.435Z,71.06
2023-03-03T07:48:36.370Z,66.55
2023-03-03T07:49:36.382Z,68.96
2023-03-03T07:50:36.403Z,67.84
2023-03-03T07:51:36.455Z,66.87
2023-03-03T07:52:36.344Z,59.46
2023-03-03T07:53:36.302Z,69.61
2023-03-03T07:54:36.339Z,69.29
2023-03-03T07:55:36.312Z,66.71
2023-03-03T07:56:36.308Z,66.23
2023-03-03T07:57:36.319Z,68.96
2023-03-03T07:58:36.279Z,68.00
2023-03-03T07:59:36.260Z,68.00
2023-03-03T08:00:36.332Z,68.80
2023-03-03T08:01:36.256Z,67.19
2023-03-03T08:02:36.254Z,71.70
2023-03-03T08:03:36.264Z,59.30
2023-03-03T08:04:36.340Z,65.58
2023-03-03T08:05:36.401Z,67.51
2023-03-03T08:06:36.201Z,65.74
2023-03-03T08:07:36.155Z,57.52
2023-03-03T08:08:36.176Z,64.29
2023-03-03T08:09:36.179Z,61.39
2023-03-03T08:10:36.281Z,68.64
2023-03-03T08:11:36.163Z,66.71
2023-03-03T08:12:36.139Z,71.70
2023-03-03T08:13:36.150Z,62.68
2023-03-03T08:14:36.087Z,69.61
2023-03-03T08:15:36.137Z,62.36
2023-03-03T08:16:36.074Z,61.39
2023-03-03T08:17:36.091Z,64.61
2023-03-03T08:18:36.077Z,67.03
2023-03-03T08:19:36.059Z,68.32
2023-03-03T08:20:36.015Z,66.55
2023-03-03T08:21:36.026Z,66.06
2023-03-03T08:22:35.990Z,67.84
2023-03-03T08:23:36.026Z,68.32
2023-03-03T08:24:38.110Z,66.55
2023-03-03T08:25:36.983Z,68.16
2023-03-03T08:26:35.955Z,70.90
2023-03-03T08:27:35.970Z,64.94
2023-03-03T08:28:35.997Z,67.03
2023-03-03T08:29:35.902Z,69.13
2023-03-03T08:30:37.491Z,68.64
2023-03-03T08:31:41.719Z,63.00
2023-03-03T08:32:38.083Z,66.71
2023-03-03T08:33:35.903Z,64.78
2023-03-03T08:34:35.964Z,67.35
2023-03-03T08:35:35.851Z,64.13
2023-03-03T08:36:35.857Z,65.74
2023-03-03T08:37:35.831Z,66.06
2023-03-03T08:38:35.835Z,67.19
2023-03-03T08:39:35.899Z,64.61
2023-03-03T08:40:35.804Z,63.16
2023-03-03T08:41:35.835Z,63.33
2023-03-03T08:42:35.815Z,67.68
2023-03-03T08:43:35.768Z,65.26
2023-03-03T08:44:35.813Z,67.51
2023-03-03T08:45:35.789Z,68.16
2023-03-03T08:46:35.810Z,63.97
2023-03-03T08:47:35.697Z,67.51
2023-03-03T08:48:36.517Z,68.16
2023-03-03T08:49:35.732Z,71.70
2023-03-03T08:50:35.682Z,69.61
2023-03-03T08:51:35.674Z,67.51
2023-03-03T08:52:35.678Z,61.87
2023-03-03T08:53:35.679Z,70.09
2023-03-03T08:54:35.677Z,69.77
2023-03-03T08:55:35.664Z,65.42
2023-03-03T08:56:35.659Z,67.03
2023-03-03T08:57:35.629Z,68.80
2023-03-03T08:58:36.666Z,67.84
2023-03-03T08:59:36.591Z,67.35
2023-03-03T09:00:35.647Z,65.74
2023-03-03T09:01:35.579Z,68.80
2023-03-03T09:02:35.581Z,69.13
2023-03-03T09:03:35.608Z,67.68
2023-03-03T09:04:35.545Z,66.39
2023-03-03T09:05:35.536Z,65.26
2023-03-03T09:06:35.527Z,58.49
2023-03-03T09:07:35.526Z,66.06
2023-03-03T09:08:35.534Z,66.06
2023-03-03T09:09:35.488Z,72.51
2023-03-03T09:10:35.559Z,64.94
2023-03-03T09:11:35.514Z,68.64
2023-03-03T09:12:35.474Z,68.64
2023-03-03T09:13:35.437Z,66.55
2023-03-03T09:14:35.454Z,64.61
2023-03-03T09:15:35.429Z,70.09
2023-03-03T09:16:35.454Z,69.13
2023-03-03T09:17:35.425Z,64.29
2023-03-03T09:18:35.421Z,67.35
2023-03-03T09:19:37.269Z,64.45
2023-03-03T09:20:36.373Z,68.32
2023-03-03T09:21:35.356Z,69.61
2023-03-03T09:22:35.424Z,66.71
2023-03-03T09:23:35.381Z,66.06
2023-03-03T09:24:35.313Z,66.39
2023-03-03T09:25:35.325Z,69.45
2023-03-03T09:26:35.776Z,65.74
2023-03-03T09:27:35.385Z,70.25
2023-03-03T09:28:35.316Z,65.10
2023-03-03T09:29:35.263Z,65.58
2023-03-03T09:30:35.263Z,69.45
2023-03-03T09:31:35.923Z,66.06
2023-03-03T09:32:35.317Z,66.87
2023-03-03T09:33:35.275Z,72.19
2023-03-03T09:34:35.211Z,70.90
2023-03-03T09:35:35.259Z,67.51
2023-03-03T09:36:35.203Z,63.49
2023-03-03T09:37:35.257Z,61.55
2023-03-03T09:38:35.192Z,64.29
2023-03-03T09:39:35.143Z,67.35
2023-03-03T09:40:35.206Z,68.32
2023-03-03T09:41:35.140Z,67.35
2023-03-03T09:42:35.152Z,60.59
2023-03-03T09:43:35.138Z,65.74
2023-03-03T09:44:35.116Z,63.65
2023-03-03T09:45:35.139Z,61.87
2023-03-03T09:46:36.161Z,70.09
2023-03-03T09:47:35.077Z,65.58
2023-03-03T09:48:35.073Z,68.32
2023-03-03T09:49:35.167Z,70.58
2023-03-03T09:50:35.060Z,70.90
2023-03-03T09:51:35.036Z,73.15
2023-03-03T09:52:35.049Z,67.51
2023-03-03T09:53:34.996Z,70.09
2023-03-03T09:54:35.018Z,68.00
2023-03-03T09:55:36.680Z,69.13
2023-03-03T09:56:36.044Z,69.77
2023-03-03T09:57:34.975Z,61.39
2023-03-03T09:58:34.987Z,67.03
2023-03-03T09:59:34.973Z,63.49
2023-03-03T10:00:34.967Z,64.45
2023-03-03T10:01:34.958Z,66.39
2023-03-03T10:02:34.906Z,62.84
2023-03-03T10:03:35.022Z,68.00
2023-03-03T10:04:35.007Z,64.13
2023-03-03T10:05:34.923Z,67.68
2023-03-03T10:06:34.879Z,64.61
2023-03-03T10:07:34.844Z,66.71
2023-03-03T10:08:34.880Z,69.45
2023-03-03T10:09:34.826Z,62.36
2023-03-03T10:10:34.800Z,67.51
2023-03-03T10:11:34.840Z,60.91
2023-03-03T10:12:34.849Z,67.68
2023-03-03T10:13:34.860Z,63.33
2023-03-03T10:14:34.770Z,68.80
2023-03-03T10:15:34.759Z,67.68
2023-03-03T10:16:34.819Z,66.55
2023-03-03T10:17:34.755Z,67.68
2023-03-03T10:18:34.775Z,64.78
2023-03-03T10:19:34.744Z,69.61
2023-03-03T10:20:47.513Z,62.52
2023-03-03T10:21:36.699Z,69.45
2023-03-03T10:22:34.745Z,70.42
2023-03-03T10:23:34.746Z,68.80
2023-03-03T10:24:34.683Z,67.68
2023-03-03T10:25:34.662Z,66.55
2023-03-03T10:26:44.337Z,63.81
2023-03-03T10:27:36.644Z,69.93
2023-03-03T10:28:34.654Z,67.19
2023-03-03T10:29:34.656Z,68.48
2023-03-03T10:30:41.168Z,67.03
2023-03-03T10:31:36.642Z,64.45
2023-03-03T10:32:35.554Z,68.64
2023-03-03T10:33:34.845Z,70.09
2023-03-03T10:34:34.595Z,67.03
2023-03-03T10:35:34.604Z,66.06
2023-03-03T10:36:34.560Z,64.45
2023-03-03T10:37:34.522Z,65.42
2023-03-03T10:38:34.683Z,70.42
2023-03-03T10:39:34.569Z,69.29
2023-03-03T10:40:34.603Z,67.51
2023-03-03T10:41:34.498Z,67.84
2023-03-03T10:42:34.474Z,67.51
2023-03-03T10:43:34.530Z,69.13
2023-03-03T10:44:34.550Z,68.00
2023-03-03T10:45:34.500Z,68.64
2023-03-03T10:46:34.431Z,70.09
2023-03-03T10:47:34.473Z,69.13
2023-03-03T10:48:34.433Z,62.36
2023-03-03T10:49:34.415Z,68.00
2023-03-03T10:50:34.406Z,67.84
2023-03-03T10:51:34.388Z,70.58
2023-03-03T10:52:34.365Z,72.35
2023-03-03T10:53:34.358Z,72.19
2023-03-03T10:54:34.391Z,58.17
2023-03-03T10:55:34.328Z,66.71
2023-03-03T10:56:50.478Z,67.51
2023-03-03T10:57:36.350Z,69.77
2023-03-03T10:58:34.319Z,69.13
2023-03-03T10:59:34.306Z,66.87
2023-03-03T11:00:34.319Z,66.87
2023-03-03T11:01:34.353Z,64.13
2023-03-03T11:02:34.332Z,61.55
2023-03-03T11:03:34.288Z,67.51
2023-03-03T11:04:34.398Z,65.26
2023-03-03T11:05:34.285Z,65.58
2023-03-03T11:06:34.214Z,68.16
2023-03-03T11:07:34.196Z,68.00
2023-03-03T11:08:34.202Z,67.03
2023-03-03T11:09:34.222Z,68.00
2023-03-03T11:10:34.181Z,63.00
2023-03-03T11:11:34.162Z,65.26
2023-03-03T11:12:34.153Z,69.13
2023-03-03T11:13:34.137Z,69.13
2023-03-03T11:14:34.354Z,68.80
2023-03-03T11:15:35.125Z,67.35
2023-03-03T11:16:34.153Z,68.00
2023-03-03T11:17:34.074Z,68.00
2023-03-03T11:18:34.085Z,67.03
2023-03-03T11:19:34.106Z,67.03
2023-03-03T11:20:34.094Z,70.74
2023-03-03T11:21:34.060Z,70.42
2023-03-03T11:22:34.051Z,69.77
2023-03-03T11:23:34.078Z,64.61
2023-03-03T11:24:34.019Z,70.42
2023-03-03T11:25:34.032Z,70.58
2023-03-03T11:26:34.002Z,69.29
2023-03-03T11:27:33.982Z,68.32
2023-03-03T11:28:34.965Z,69.13
2023-03-03T11:29:34.020Z,71.22
2023-03-03T11:30:33.988Z,72.03
2023-03-03T11:31:33.997Z,68.16
2023-03-03T11:32:34.106Z,70.58
2023-03-03T11:33:34.031Z,70.25
2023-03-03T11:34:33.990Z,69.77
2023-03-03T11:35:33.927Z,67.19
2023-03-03T11:36:35.082Z,68.96
2023-03-03T11:37:34.882Z,70.58
2023-03-03T11:38:33.884Z,69.61
2023-03-03T11:39:33.981Z,65.90
2023-03-03T11:40:33.844Z,66.55
2023-03-03T11:41:33.855Z,66.55
2023-03-03T11:42:33.832Z,65.74
2023-03-03T11:43:36.471Z,65.74
2023-03-03T11:44:34.885Z,70.09
2023-03-03T11:45:33.789Z,72.35
2023-03-03T11:46:33.791Z,69.77
2023-03-03T11:47:33.798Z,68.48
2023-03-03T11:48:33.768Z,70.90
2023-03-03T11:49:33.762Z,70.58
2023-03-03T11:50:33.763Z,64.45
2023-03-03T11:51:33.781Z,72.03
2023-03-03T11:52:33.717Z,68.64
2023-03-03T11:53:33.732Z,70.58
2023-03-03T11:54:33.704Z,68.64
2023-03-03T11:55:33.698Z,70.90
2023-03-03T11:56:33.692Z,72.35
2023-03-03T11:57:34.816Z,68.80
2023-03-03T11:58:33.655Z,71.70
2023-03-03T11:59:33.655Z,68.16
2023-03-03T12:00:33.656Z,68.48
2023-03-03T12:01:33.628Z,69.61
2023-03-03T12:02:33.641Z,68.80
2023-03-03T12:03:33.607Z,69.13
2023-03-03T12:04:33.587Z,71.22
2023-03-03T12:05:33.613Z,70.74
2023-03-03T12:06:33.567Z,72.19
2023-03-03T12:07:33.552Z,69.13
2023-03-03T12:08:33.511Z,69.29
2023-03-03T12:09:33.682Z,68.80
2023-03-03T12:10:33.526Z,72.83
2023-03-03T12:11:33.488Z,69.13
2023-03-03T12:12:33.475Z,70.42
2023-03-03T12:13:33.491Z,68.96
2023-03-03T12:14:33.516Z,65.74
2023-03-03T12:15:33.494Z,71.06
2023-03-03T12:16:33.435Z,66.39
2023-03-03T12:17:33.457Z,70.58
2023-03-03T12:18:33.410Z,68.16
2023-03-03T12:19:33.537Z,71.22
2023-03-03T12:20:33.444Z,71.70
2023-03-03T12:22:06.848Z,68.32
2023-03-03T12:22:33.389Z,73.15
2023-03-03T12:23:34.317Z,69.45
2023-03-03T12:24:33.406Z,71.70
2023-03-03T12:25:33.540Z,67.68
2023-03-03T12:26:33.332Z,68.96
2023-03-03T12:27:33.328Z,69.29
2023-03-03T12:28:33.286Z,63.33
2023-03-03T12:29:33.323Z,72.99
2023-03-03T12:30:33.258Z,72.35
2023-03-03T12:31:33.298Z,68.16
2023-03-03T12:32:33.477Z,69.93
2023-03-03T12:33:33.245Z,70.74
2023-03-03T12:34:33.226Z,70.74
2023-03-03T12:35:33.307Z,69.29
2023-03-03T12:36:33.178Z,71.54
2023-03-03T12:37:33.287Z,72.19
2023-03-03T12:38:33.217Z,69.29
2023-03-03T12:39:35.381Z,67.84
2023-03-03T12:40:34.197Z,68.00
2023-03-03T12:41:33.173Z,69.29
2023-03-03T12:42:33.173Z,70.09
2023-03-03T12:43:33.136Z,65.90
2023-03-03T12:44:33.143Z,63.16
2023-03-03T12:45:33.151Z,66.87
2023-03-03T12:46:33.163Z,70.42
2023-03-03T12:47:33.147Z,69.77
2023-03-03T12:48:33.099Z,74.44
2023-03-03T12:49:42.455Z,71.54
2023-03-03T12:50:35.079Z,72.19
2023-03-03T12:51:33.035Z,67.19
2023-03-03T12:52:33.123Z,69.93